sensor_id;sensor_type;location;lat;lon;timestamp;P1;durP1;ratioP1;P2;durP2;ratioP2
19940;SDS011;10132;50.864;5.176;2022-08-25T00:00:13;5.00;;;3.13;;
19940;SDS011;10132;50.864;5.176;2022-08-25T00:02:18;5.63;;;3.60;;
19940;SDS011;10132;50.864;5.176;2022-08-25T00:04:20;7.35;;;3.88;;
19940;SDS011;10132;50.864;5.176;2022-08-25T00:06:23;4.05;;;3.55;;
19940;SDS011;10132;50.864;5.176;2022-08-25T00:08:25;5.50;;;3.70;;
19940;SDS011;10132;50.864;5.176;2022-08-25T00:10:27;7.28;;;3.33;;
19940;SDS011;10132;50.864;5.176;2022-08-25T00:12:29;6.85;;;3.60;;
19940;SDS011;10132;50.864;5.176;2022-08-25T00:14:33;4.88;;;3.30;;
19940;SDS011;10132;50.864;5.176;2022-08-25T00:16:37;4.20;;;3.38;;
19940;SDS011;10132;50.864;5.176;2022-08-25T00:18:39;7.25;;;3.58;;
19940;SDS011;10132;50.864;5.176;2022-08-25T00:20:44;5.45;;;3.40;;
19940;SDS011;10132;50.864;5.176;2022-08-25T00:22:46;5.00;;;3.80;;
19940;SDS011;10132;50.864;5.176;2022-08-25T00:24:48;5.53;;;3.40;;
19940;SDS011;10132;50.864;5.176;2022-08-25T00:26:51;4.32;;;3.92;;
19940;SDS011;10132;50.864;5.176;2022-08-25T00:28:55;3.85;;;3.42;;
19940;SDS011;10132;50.864;5.176;2022-08-25T00:30:59;5.63;;;3.67;;
19940;SDS011;10132;50.864;5.176;2022-08-25T00:33:01;8.75;;;3.80;;
19940;SDS011;10132;50.864;5.176;2022-08-25T00:35:03;6.65;;;3.97;;
19940;SDS011;10132;50.864;5.176;2022-08-25T00:37:06;6.50;;;4.00;;
19940;SDS011;10132;50.864;5.176;2022-08-25T00:39:09;4.03;;;3.65;;
19940;SDS011;10132;50.864;5.176;2022-08-25T00:41:13;6.80;;;3.80;;
19940;SDS011;10132;50.864;5.176;2022-08-25T00:43:16;5.78;;;3.53;;
19940;SDS011;10132;50.864;5.176;2022-08-25T00:45:19;5.90;;;3.90;;
19940;SDS011;10132;50.864;5.176;2022-08-25T00:47:23;6.47;;;3.90;;
19940;SDS011;10132;50.864;5.176;2022-08-25T00:49:26;4.22;;;3.80;;
19940;SDS011;10132;50.864;5.176;2022-08-25T00:51:32;6.45;;;3.95;;
19940;SDS011;10132;50.864;5.176;2022-08-25T00:53:39;4.53;;;3.42;;
19940;SDS011;10132;50.864;5.176;2022-08-25T00:55:41;5.95;;;4.10;;
19940;SDS011;10132;50.864;5.176;2022-08-25T00:57:46;3.95;;;3.63;;
19940;SDS011;10132;50.864;5.176;2022-08-25T00:59:52;7.10;;;4.28;;
19940;SDS011;10132;50.864;5.176;2022-08-25T01:01:54;5.80;;;4.45;;
19940;SDS011;10132;50.864;5.176;2022-08-25T01:03:59;4.65;;;4.18;;
19940;SDS011;10132;50.864;5.176;2022-08-25T01:06:02;4.82;;;4.32;;
19940;SDS011;10132;50.864;5.176;2022-08-25T01:08:05;8.60;;;4.22;;
19940;SDS011;10132;50.864;5.176;2022-08-25T01:10:08;8.30;;;4.80;;
19940;SDS011;10132;50.864;5.176;2022-08-25T01:12:12;6.07;;;3.78;;
19940;SDS011;10132;50.864;5.176;2022-08-25T01:14:15;4.55;;;3.92;;
19940;SDS011;10132;50.864;5.176;2022-08-25T01:16:19;6.68;;;4.30;;
19940;SDS011;10132;50.864;5.176;2022-08-25T01:18:22;5.90;;;3.80;;
19940;SDS011;10132;50.864;5.176;2022-08-25T01:20:27;4.50;;;3.60;;
19940;SDS011;10132;50.864;5.176;2022-08-25T01:22:33;7.35;;;4.10;;
19940;SDS011;10132;50.864;5.176;2022-08-25T01:24:36;7.13;;;3.95;;
19940;SDS011;10132;50.864;5.176;2022-08-25T01:26:42;8.82;;;4.50;;
19940;SDS011;10132;50.864;5.176;2022-08-25T01:28:44;6.75;;;4.22;;
19940;SDS011;10132;50.864;5.176;2022-08-25T01:31:05;6.57;;;4.15;;
19940;SDS011;10132;50.864;5.176;2022-08-25T01:33:08;7.75;;;4.20;;
19940;SDS011;10132;50.864;5.176;2022-08-25T01:35:11;7.20;;;4.15;;
19940;SDS011;10132;50.864;5.176;2022-08-25T01:37:14;5.50;;;4.55;;
19940;SDS011;10132;50.864;5.176;2022-08-25T01:39:19;5.07;;;3.90;;
19940;SDS011;10132;50.864;5.176;2022-08-25T01:41:26;8.43;;;4.20;;
19940;SDS011;10132;50.864;5.176;2022-08-25T01:43:37;6.65;;;4.47;;
19940;SDS011;10132;50.864;5.176;2022-08-25T01:45:40;7.85;;;4.53;;
19940;SDS011;10132;50.864;5.176;2022-08-25T01:47:44;5.03;;;4.05;;
19940;SDS011;10132;50.864;5.176;2022-08-25T01:49:46;10.45;;;4.40;;
19940;SDS011;10132;50.864;5.176;2022-08-25T01:51:50;5.53;;;4.00;;
19940;SDS011;10132;50.864;5.176;2022-08-25T01:53:55;6.88;;;3.97;;
19940;SDS011;10132;50.864;5.176;2022-08-25T01:55:59;5.25;;;4.32;;
19940;SDS011;10132;50.864;5.176;2022-08-25T01:58:09;8.32;;;4.45;;
19940;SDS011;10132;50.864;5.176;2022-08-25T02:00:12;9.18;;;4.22;;
19940;SDS011;10132;50.864;5.176;2022-08-25T02:02:16;6.30;;;4.32;;
19940;SDS011;10132;50.864;5.176;2022-08-25T02:04:18;7.03;;;4.50;;
19940;SDS011;10132;50.864;5.176;2022-08-25T02:06:22;4.90;;;4.10;;
19940;SDS011;10132;50.864;5.176;2022-08-25T02:08:27;5.25;;;3.83;;
19940;SDS011;10132;50.864;5.176;2022-08-25T02:10:29;4.45;;;3.90;;
19940;SDS011;10132;50.864;5.176;2022-08-25T02:12:34;4.93;;;3.80;;
19940;SDS011;10132;50.864;5.176;2022-08-25T02:14:36;5.20;;;4.10;;
19940;SDS011;10132;50.864;5.176;2022-08-25T02:16:39;8.20;;;4.30;;
19940;SDS011;10132;50.864;5.176;2022-08-25T02:18:42;6.65;;;4.00;;
19940;SDS011;10132;50.864;5.176;2022-08-25T02:20:44;6.63;;;4.25;;
19940;SDS011;10132;50.864;5.176;2022-08-25T02:22:46;5.07;;;4.32;;
19940;SDS011;10132;50.864;5.176;2022-08-25T02:24:48;5.50;;;4.50;;
19940;SDS011;10132;50.864;5.176;2022-08-25T02:26:50;7.13;;;4.50;;
19940;SDS011;10132;50.864;5.176;2022-08-25T02:28:54;5.88;;;4.40;;
19940;SDS011;10132;50.864;5.176;2022-08-25T02:30:56;5.30;;;4.25;;
19940;SDS011;10132;50.864;5.176;2022-08-25T02:32:58;8.25;;;4.63;;
19940;SDS011;10132;50.864;5.176;2022-08-25T02:35:00;6.68;;;4.85;;
19940;SDS011;10132;50.864;5.176;2022-08-25T02:37:03;9.40;;;4.70;;
19940;SDS011;10132;50.864;5.176;2022-08-25T02:39:05;6.28;;;5.00;;
19940;SDS011;10132;50.864;5.176;2022-08-25T02:41:09;5.43;;;4.10;;
19940;SDS011;10132;50.864;5.176;2022-08-25T02:43:12;5.50;;;4.47;;
19940;SDS011;10132;50.864;5.176;2022-08-25T02:45:16;6.03;;;4.50;;
19940;SDS011;10132;50.864;5.176;2022-08-25T02:47:18;5.13;;;4.50;;
19940;SDS011;10132;50.864;5.176;2022-08-25T02:49:21;6.70;;;4.65;;
19940;SDS011;10132;50.864;5.176;2022-08-25T02:51:23;7.97;;;4.80;;
19940;SDS011;10132;50.864;5.176;2022-08-25T02:53:27;9.15;;;5.00;;
19940;SDS011;10132;50.864;5.176;2022-08-25T02:55:30;6.53;;;5.68;;
19940;SDS011;10132;50.864;5.176;2022-08-25T02:57:32;6.47;;;4.78;;
19940;SDS011;10132;50.864;5.176;2022-08-25T02:59:34;10.52;;;5.43;;
19940;SDS011;10132;50.864;5.176;2022-08-25T03:01:38;6.93;;;4.80;;
19940;SDS011;10132;50.864;5.176;2022-08-25T03:03:40;7.78;;;5.10;;
19940;SDS011;10132;50.864;5.176;2022-08-25T03:05:44;5.47;;;4.90;;
19940;SDS011;10132;50.864;5.176;2022-08-25T03:07:45;6.90;;;5.20;;
19940;SDS011;10132;50.864;5.176;2022-08-25T03:09:48;8.43;;;5.53;;
19940;SDS011;10132;50.864;5.176;2022-08-25T03:11:49;6.57;;;4.90;;
19940;SDS011;10132;50.864;5.176;2022-08-25T03:13:51;6.88;;;4.53;;
19940;SDS011;10132;50.864;5.176;2022-08-25T03:15:55;6.22;;;4.50;;
19940;SDS011;10132;50.864;5.176;2022-08-25T03:17:58;9.82;;;4.45;;
19940;SDS011;10132;50.864;5.176;2022-08-25T03:20:02;5.15;;;4.30;;
19940;SDS011;10132;50.864;5.176;2022-08-25T03:22:04;6.63;;;4.68;;
19940;SDS011;10132;50.864;5.176;2022-08-25T03:24:06;5.40;;;4.30;;
19940;SDS011;10132;50.864;5.176;2022-08-25T03:26:08;6.20;;;4.45;;
19940;SDS011;10132;50.864;5.176;2022-08-25T03:28:28;5.57;;;4.25;;
19940;SDS011;10132;50.864;5.176;2022-08-25T03:30:32;7.57;;;4.80;;
19940;SDS011;10132;50.864;5.176;2022-08-25T03:32:34;6.45;;;4.63;;
19940;SDS011;10132;50.864;5.176;2022-08-25T03:34:37;5.57;;;4.97;;
19940;SDS011;10132;50.864;5.176;2022-08-25T03:36:39;5.15;;;4.28;;
19940;SDS011;10132;50.864;5.176;2022-08-25T03:38:41;6.00;;;4.18;;
19940;SDS011;10132;50.864;5.176;2022-08-25T03:40:43;6.25;;;4.40;;
19940;SDS011;10132;50.864;5.176;2022-08-25T03:42:45;5.90;;;4.50;;
19940;SDS011;10132;50.864;5.176;2022-08-25T03:44:46;5.32;;;4.55;;
19940;SDS011;10132;50.864;5.176;2022-08-25T03:46:50;9.38;;;4.40;;
19940;SDS011;10132;50.864;5.176;2022-08-25T03:48:53;5.75;;;4.63;;
19940;SDS011;10132;50.864;5.176;2022-08-25T03:50:57;6.65;;;4.50;;
19940;SDS011;10132;50.864;5.176;2022-08-25T03:52:59;5.78;;;4.60;;
19940;SDS011;10132;50.864;5.176;2022-08-25T03:55:01;6.95;;;4.82;;
19940;SDS011;10132;50.864;5.176;2022-08-25T03:57:05;6.53;;;4.97;;
19940;SDS011;10132;50.864;5.176;2022-08-25T03:59:08;7.97;;;4.90;;
19940;SDS011;10132;50.864;5.176;2022-08-25T04:01:10;5.90;;;4.93;;
19940;SDS011;10132;50.864;5.176;2022-08-25T04:03:12;8.63;;;5.75;;
19940;SDS011;10132;50.864;5.176;2022-08-25T04:05:14;5.72;;;4.97;;
19940;SDS011;10132;50.864;5.176;2022-08-25T04:07:17;5.43;;;4.77;;
19940;SDS011;10132;50.864;5.176;2022-08-25T04:09:19;7.95;;;4.88;;
19940;SDS011;10132;50.864;5.176;2022-08-25T04:11:21;6.32;;;4.85;;
19940;SDS011;10132;50.864;5.176;2022-08-25T04:13:24;8.40;;;4.38;;
19940;SDS011;10132;50.864;5.176;2022-08-25T04:15:25;6.65;;;4.22;;
19940;SDS011;10132;50.864;5.176;2022-08-25T04:17:27;4.75;;;4.05;;
19940;SDS011;10132;50.864;5.176;2022-08-25T04:19:29;9.07;;;4.93;;
19940;SDS011;10132;50.864;5.176;2022-08-25T04:21:32;6.17;;;4.97;;
19940;SDS011;10132;50.864;5.176;2022-08-25T04:23:35;6.68;;;4.68;;
19940;SDS011;10132;50.864;5.176;2022-08-25T04:25:38;7.03;;;5.18;;
19940;SDS011;10132;50.864;5.176;2022-08-25T04:27:42;7.35;;;5.40;;
19940;SDS011;10132;50.864;5.176;2022-08-25T04:29:43;8.05;;;5.43;;
19940;SDS011;10132;50.864;5.176;2022-08-25T04:31:46;7.23;;;5.40;;
19940;SDS011;10132;50.864;5.176;2022-08-25T04:33:49;5.10;;;4.57;;
19940;SDS011;10132;50.864;5.176;2022-08-25T04:35:52;6.17;;;5.40;;
19940;SDS011;10132;50.864;5.176;2022-08-25T04:37:54;7.40;;;5.43;;
19940;SDS011;10132;50.864;5.176;2022-08-25T04:39:57;5.77;;;5.07;;
19940;SDS011;10132;50.864;5.176;2022-08-25T04:41:59;6.40;;;4.57;;
19940;SDS011;10132;50.864;5.176;2022-08-25T04:44:02;6.47;;;5.40;;
19940;SDS011;10132;50.864;5.176;2022-08-25T04:46:04;6.65;;;4.95;;
19940;SDS011;10132;50.864;5.176;2022-08-25T04:48:07;8.20;;;5.20;;
19940;SDS011;10132;50.864;5.176;2022-08-25T04:50:09;7.60;;;5.50;;
19940;SDS011;10132;50.864;5.176;2022-08-25T04:52:11;8.45;;;5.40;;
19940;SDS011;10132;50.864;5.176;2022-08-25T04:54:13;10.55;;;5.20;;
19940;SDS011;10132;50.864;5.176;2022-08-25T04:56:22;9.37;;;5.40;;
19940;SDS011;10132;50.864;5.176;2022-08-25T04:58:25;7.73;;;5.23;;
19940;SDS011;10132;50.864;5.176;2022-08-25T05:00:27;10.93;;;5.50;;
19940;SDS011;10132;50.864;5.176;2022-08-25T05:02:29;12.80;;;5.85;;
19940;SDS011;10132;50.864;5.176;2022-08-25T05:04:31;7.15;;;5.47;;
19940;SDS011;10132;50.864;5.176;2022-08-25T05:06:35;10.27;;;5.80;;
19940;SDS011;10132;50.864;5.176;2022-08-25T05:08:38;9.07;;;5.32;;
19940;SDS011;10132;50.864;5.176;2022-08-25T05:10:40;12.10;;;5.55;;
19940;SDS011;10132;50.864;5.176;2022-08-25T05:12:43;8.48;;;5.05;;
19940;SDS011;10132;50.864;5.176;2022-08-25T05:14:45;6.57;;;4.82;;
19940;SDS011;10132;50.864;5.176;2022-08-25T05:16:47;8.65;;;5.88;;
19940;SDS011;10132;50.864;5.176;2022-08-25T05:18:50;6.03;;;5.43;;
19940;SDS011;10132;50.864;5.176;2022-08-25T05:20:52;7.10;;;5.43;;
19940;SDS011;10132;50.864;5.176;2022-08-25T05:22:55;6.07;;;5.15;;
19940;SDS011;10132;50.864;5.176;2022-08-25T05:24:57;8.85;;;5.28;;
19940;SDS011;10132;50.864;5.176;2022-08-25T05:26:59;10.48;;;5.45;;
19940;SDS011;10132;50.864;5.176;2022-08-25T05:29:04;7.95;;;5.18;;
19940;SDS011;10132;50.864;5.176;2022-08-25T05:31:07;5.13;;;4.43;;
19940;SDS011;10132;50.864;5.176;2022-08-25T05:33:10;7.15;;;4.80;;
19940;SDS011;10132;50.864;5.176;2022-08-25T05:35:13;6.63;;;4.70;;
19940;SDS011;10132;50.864;5.176;2022-08-25T05:37:15;8.43;;;5.32;;
19940;SDS011;10132;50.864;5.176;2022-08-25T05:39:17;5.72;;;5.10;;
19940;SDS011;10132;50.864;5.176;2022-08-25T05:41:20;7.40;;;5.57;;
19940;SDS011;10132;50.864;5.176;2022-08-25T05:43:25;8.55;;;5.55;;
19940;SDS011;10132;50.864;5.176;2022-08-25T05:45:29;6.22;;;4.85;;
19940;SDS011;10132;50.864;5.176;2022-08-25T05:47:32;7.20;;;5.50;;
19940;SDS011;10132;50.864;5.176;2022-08-25T05:49:34;9.38;;;5.47;;
19940;SDS011;10132;50.864;5.176;2022-08-25T05:51:36;7.57;;;5.15;;
19940;SDS011;10132;50.864;5.176;2022-08-25T05:53:39;7.20;;;5.20;;
19940;SDS011;10132;50.864;5.176;2022-08-25T05:55:43;9.15;;;4.88;;
19940;SDS011;10132;50.864;5.176;2022-08-25T05:57:45;9.70;;;5.60;;
19940;SDS011;10132;50.864;5.176;2022-08-25T05:59:47;8.20;;;5.18;;
19940;SDS011;10132;50.864;5.176;2022-08-25T06:01:50;6.22;;;4.82;;
19940;SDS011;10132;50.864;5.176;2022-08-25T06:04:10;14.13;;;5.38;;
19940;SDS011;10132;50.864;5.176;2022-08-25T06:06:12;7.38;;;5.75;;
19940;SDS011;10132;50.864;5.176;2022-08-25T06:08:15;11.25;;;5.65;;
19940;SDS011;10132;50.864;5.176;2022-08-25T06:10:17;5.97;;;5.35;;
19940;SDS011;10132;50.864;5.176;2022-08-25T06:12:19;10.43;;;5.25;;
19940;SDS011;10132;50.864;5.176;2022-08-25T06:14:21;7.57;;;4.78;;
19940;SDS011;10132;50.864;5.176;2022-08-25T06:16:23;7.93;;;5.28;;
19940;SDS011;10132;50.864;5.176;2022-08-25T06:18:27;8.00;;;5.00;;
19940;SDS011;10132;50.864;5.176;2022-08-25T06:20:29;10.45;;;4.90;;
19940;SDS011;10132;50.864;5.176;2022-08-25T06:22:32;7.93;;;4.70;;
19940;SDS011;10132;50.864;5.176;2022-08-25T06:24:33;5.60;;;4.03;;
19940;SDS011;10132;50.864;5.176;2022-08-25T06:26:36;8.25;;;3.88;;
19940;SDS011;10132;50.864;5.176;2022-08-25T06:28:38;8.90;;;3.92;;
19940;SDS011;10132;50.864;5.176;2022-08-25T06:30:40;7.30;;;3.70;;
19940;SDS011;10132;50.864;5.176;2022-08-25T06:32:42;5.07;;;4.00;;
19940;SDS011;10132;50.864;5.176;2022-08-25T06:34:46;5.15;;;3.90;;
19940;SDS011;10132;50.864;5.176;2022-08-25T06:36:48;4.75;;;3.30;;
19940;SDS011;10132;50.864;5.176;2022-08-25T06:38:50;6.68;;;3.45;;
19940;SDS011;10132;50.864;5.176;2022-08-25T06:40:53;5.75;;;3.10;;
19940;SDS011;10132;50.864;5.176;2022-08-25T06:42:56;4.57;;;2.92;;
19940;SDS011;10132;50.864;5.176;2022-08-25T06:44:58;8.98;;;3.65;;
19940;SDS011;10132;50.864;5.176;2022-08-25T06:47:00;5.95;;;3.10;;
19940;SDS011;10132;50.864;5.176;2022-08-25T06:49:02;7.03;;;3.30;;
19940;SDS011;10132;50.864;5.176;2022-08-25T06:51:07;3.83;;;2.75;;
19940;SDS011;10132;50.864;5.176;2022-08-25T06:53:10;6.65;;;2.90;;
19940;SDS011;10132;50.864;5.176;2022-08-25T06:55:13;9.63;;;3.35;;
19940;SDS011;10132;50.864;5.176;2022-08-25T06:57:15;4.93;;;3.25;;
19940;SDS011;10132;50.864;5.176;2022-08-25T06:59:17;10.27;;;2.85;;
19940;SDS011;10132;50.864;5.176;2022-08-25T07:01:20;9.48;;;3.58;;
19940;SDS011;10132;50.864;5.176;2022-08-25T07:03:25;10.88;;;3.30;;
19940;SDS011;10132;50.864;5.176;2022-08-25T07:05:27;7.32;;;3.05;;
19940;SDS011;10132;50.864;5.176;2022-08-25T07:07:31;4.82;;;2.90;;
19940;SDS011;10132;50.864;5.176;2022-08-25T07:09:33;7.03;;;3.25;;
19940;SDS011;10132;50.864;5.176;2022-08-25T07:11:35;6.63;;;3.22;;
19940;SDS011;10132;50.864;5.176;2022-08-25T07:13:37;6.88;;;2.85;;
19940;SDS011;10132;50.864;5.176;2022-08-25T07:15:39;7.18;;;2.83;;
19940;SDS011;10132;50.864;5.176;2022-08-25T07:17:43;7.20;;;3.13;;
19940;SDS011;10132;50.864;5.176;2022-08-25T07:19:44;4.18;;;2.70;;
19940;SDS011;10132;50.864;5.176;2022-08-25T07:21:48;9.95;;;3.20;;
19940;SDS011;10132;50.864;5.176;2022-08-25T07:23:53;8.23;;;3.25;;
19940;SDS011;10132;50.864;5.176;2022-08-25T07:26:05;12.95;;;3.00;;
19940;SDS011;10132;50.864;5.176;2022-08-25T07:28:09;7.43;;;2.83;;
19940;SDS011;10132;50.864;5.176;2022-08-25T07:30:11;6.70;;;3.05;;
19940;SDS011;10132;50.864;5.176;2022-08-25T07:32:13;6.47;;;2.88;;
19940;SDS011;10132;50.864;5.176;2022-08-25T07:34:15;6.40;;;3.10;;
19940;SDS011;10132;50.864;5.176;2022-08-25T07:36:34;7.18;;;2.88;;
19940;SDS011;10132;50.864;5.176;2022-08-25T07:38:36;7.97;;;2.97;;
19940;SDS011;10132;50.864;5.176;2022-08-25T07:40:39;8.02;;;2.42;;
19940;SDS011;10132;50.864;5.176;2022-08-25T07:42:41;7.97;;;3.30;;
19940;SDS011;10132;50.864;5.176;2022-08-25T07:44:44;8.13;;;2.85;;
19940;SDS011;10132;50.864;5.176;2022-08-25T07:46:46;6.22;;;2.90;;
19940;SDS011;10132;50.864;5.176;2022-08-25T07:48:48;4.50;;;3.10;;
19940;SDS011;10132;50.864;5.176;2022-08-25T07:50:50;5.97;;;2.95;;
19940;SDS011;10132;50.864;5.176;2022-08-25T07:52:52;9.05;;;2.80;;
19940;SDS011;10132;50.864;5.176;2022-08-25T07:54:55;10.35;;;3.33;;
19940;SDS011;10132;50.864;5.176;2022-08-25T07:56:58;6.30;;;2.80;;
19940;SDS011;10132;50.864;5.176;2022-08-25T07:59:00;8.15;;;3.15;;
19940;SDS011;10132;50.864;5.176;2022-08-25T08:01:03;7.68;;;3.22;;
19940;SDS011;10132;50.864;5.176;2022-08-25T08:03:06;10.10;;;2.88;;
19940;SDS011;10132;50.864;5.176;2022-08-25T08:05:09;8.00;;;3.00;;
19940;SDS011;10132;50.864;5.176;2022-08-25T08:07:12;7.95;;;2.90;;
19940;SDS011;10132;50.864;5.176;2022-08-25T08:09:17;8.10;;;3.08;;
19940;SDS011;10132;50.864;5.176;2022-08-25T08:11:19;7.40;;;3.25;;
19940;SDS011;10132;50.864;5.176;2022-08-25T08:13:26;6.93;;;3.03;;
19940;SDS011;10132;50.864;5.176;2022-08-25T08:15:28;7.55;;;2.97;;
19940;SDS011;10132;50.864;5.176;2022-08-25T08:17:30;6.07;;;2.70;;
19940;SDS011;10132;50.864;5.176;2022-08-25T08:19:32;5.40;;;2.70;;
19940;SDS011;10132;50.864;5.176;2022-08-25T08:21:34;6.05;;;3.00;;
19940;SDS011;10132;50.864;5.176;2022-08-25T08:23:36;9.10;;;3.25;;
19940;SDS011;10132;50.864;5.176;2022-08-25T08:25:38;6.28;;;3.15;;
19940;SDS011;10132;50.864;5.176;2022-08-25T08:27:40;5.97;;;2.90;;
19940;SDS011;10132;50.864;5.176;2022-08-25T08:29:46;7.85;;;3.08;;
19940;SDS011;10132;50.864;5.176;2022-08-25T08:31:48;14.25;;;3.33;;
19940;SDS011;10132;50.864;5.176;2022-08-25T08:33:50;8.00;;;3.10;;
19940;SDS011;10132;50.864;5.176;2022-08-25T08:35:56;10.57;;;3.00;;
19940;SDS011;10132;50.864;5.176;2022-08-25T08:38:01;9.23;;;3.10;;
19940;SDS011;10132;50.864;5.176;2022-08-25T08:40:03;8.68;;;3.25;;
19940;SDS011;10132;50.864;5.176;2022-08-25T08:42:11;9.98;;;3.20;;
19940;SDS011;10132;50.864;5.176;2022-08-25T08:44:19;6.80;;;3.17;;
19940;SDS011;10132;50.864;5.176;2022-08-25T08:46:32;10.18;;;2.63;;
19940;SDS011;10132;50.864;5.176;2022-08-25T08:48:47;8.40;;;3.13;;
19940;SDS011;10132;50.864;5.176;2022-08-25T08:50:59;12.07;;;3.40;;
19940;SDS011;10132;50.864;5.176;2022-08-25T08:53:10;7.13;;;3.00;;
19940;SDS011;10132;50.864;5.176;2022-08-25T08:55:18;6.18;;;3.30;;
19940;SDS011;10132;50.864;5.176;2022-08-25T08:57:24;9.98;;;3.03;;
19940;SDS011;10132;50.864;5.176;2022-08-25T08:59:30;7.35;;;2.90;;
19940;SDS011;10132;50.864;5.176;2022-08-25T09:01:44;10.20;;;2.42;;
19940;SDS011;10132;50.864;5.176;2022-08-25T09:03:50;11.90;;;2.90;;
19940;SDS011;10132;50.864;5.176;2022-08-25T09:05:58;5.97;;;2.53;;
19940;SDS011;10132;50.864;5.176;2022-08-25T09:08:04;7.53;;;2.80;;
19940;SDS011;10132;50.864;5.176;2022-08-25T09:10:11;5.47;;;2.80;;
19940;SDS011;10132;50.864;5.176;2022-08-25T09:12:14;6.50;;;2.88;;
19940;SDS011;10132;50.864;5.176;2022-08-25T09:14:29;5.82;;;2.80;;
19940;SDS011;10132;50.864;5.176;2022-08-25T09:16:44;9.00;;;2.88;;
19940;SDS011;10132;50.864;5.176;2022-08-25T09:18:55;8.27;;;2.35;;
19940;SDS011;10132;50.864;5.176;2022-08-25T09:21:06;6.50;;;2.22;;
19940;SDS011;10132;50.864;5.176;2022-08-25T09:23:16;7.72;;;2.50;;
19940;SDS011;10132;50.864;5.176;2022-08-25T09:25:31;4.25;;;2.25;;
19940;SDS011;10132;50.864;5.176;2022-08-25T09:27:39;6.72;;;2.38;;
19940;SDS011;10132;50.864;5.176;2022-08-25T09:29:50;5.43;;;2.22;;
19940;SDS011;10132;50.864;5.176;2022-08-25T09:32:01;6.13;;;2.40;;
19940;SDS011;10132;50.864;5.176;2022-08-25T09:34:08;5.10;;;2.08;;
19940;SDS011;10132;50.864;5.176;2022-08-25T09:36:12;5.43;;;2.33;;
19940;SDS011;10132;50.864;5.176;2022-08-25T09:38:14;5.15;;;2.28;;
19940;SDS011;10132;50.864;5.176;2022-08-25T09:40:16;4.97;;;2.40;;
19940;SDS011;10132;50.864;5.176;2022-08-25T09:42:21;4.32;;;2.05;;
19940;SDS011;10132;50.864;5.176;2022-08-25T09:44:44;7.72;;;2.10;;
19940;SDS011;10132;50.864;5.176;2022-08-25T09:46:54;7.93;;;2.60;;
19940;SDS011;10132;50.864;5.176;2022-08-25T09:49:11;5.57;;;2.20;;
19940;SDS011;10132;50.864;5.176;2022-08-25T09:51:17;3.38;;;2.20;;
19940;SDS011;10132;50.864;5.176;2022-08-25T09:53:20;5.82;;;2.40;;
19940;SDS011;10132;50.864;5.176;2022-08-25T09:55:26;2.80;;;2.22;;
19940;SDS011;10132;50.864;5.176;2022-08-25T09:57:34;4.47;;;2.10;;
19940;SDS011;10132;50.864;5.176;2022-08-25T09:59:44;4.10;;;1.90;;
19940;SDS011;10132;50.864;5.176;2022-08-25T10:01:50;5.32;;;1.92;;
19940;SDS011;10132;50.864;5.176;2022-08-25T10:03:55;2.97;;;1.70;;
19940;SDS011;10132;50.864;5.176;2022-08-25T10:06:02;2.58;;;1.70;;
19940;SDS011;10132;50.864;5.176;2022-08-25T10:08:09;3.70;;;1.77;;
19940;SDS011;10132;50.864;5.176;2022-08-25T10:10:15;5.57;;;2.00;;
19940;SDS011;10132;50.864;5.176;2022-08-25T10:12:20;6.40;;;1.90;;
19940;SDS011;10132;50.864;5.176;2022-08-25T10:14:26;4.35;;;2.10;;
19940;SDS011;10132;50.864;5.176;2022-08-25T10:16:34;2.83;;;1.80;;
19940;SDS011;10132;50.864;5.176;2022-08-25T10:18:36;3.10;;;1.80;;
19940;SDS011;10132;50.864;5.176;2022-08-25T10:20:38;6.45;;;1.80;;
19940;SDS011;10132;50.864;5.176;2022-08-25T10:22:42;5.40;;;1.80;;
19940;SDS011;10132;50.864;5.176;2022-08-25T10:24:45;5.70;;;2.08;;
19940;SDS011;10132;50.864;5.176;2022-08-25T10:26:49;4.85;;;2.03;;
19940;SDS011;10132;50.864;5.176;2022-08-25T10:29:00;2.60;;;1.70;;
19940;SDS011;10132;50.864;5.176;2022-08-25T10:31:09;8.25;;;2.00;;
19940;SDS011;10132;50.864;5.176;2022-08-25T10:33:19;6.63;;;2.40;;
19940;SDS011;10132;50.864;5.176;2022-08-25T10:35:37;4.57;;;1.92;;
19940;SDS011;10132;50.864;5.176;2022-08-25T10:37:50;4.43;;;1.95;;
19940;SDS011;10132;50.864;5.176;2022-08-25T10:40:06;5.80;;;1.88;;
19940;SDS011;10132;50.864;5.176;2022-08-25T10:42:26;3.92;;;1.98;;
19940;SDS011;10132;50.864;5.176;2022-08-25T10:44:35;6.70;;;2.20;;
19940;SDS011;10132;50.864;5.176;2022-08-25T10:47:10;6.88;;;1.90;;
19940;SDS011;10132;50.864;5.176;2022-08-25T10:49:29;3.70;;;2.00;;
19940;SDS011;10132;50.864;5.176;2022-08-25T10:51:37;3.90;;;1.85;;
19940;SDS011;10132;50.864;5.176;2022-08-25T10:53:50;4.95;;;1.80;;
19940;SDS011;10132;50.864;5.176;2022-08-25T10:56:03;4.60;;;2.05;;
19940;SDS011;10132;50.864;5.176;2022-08-25T10:58:09;5.40;;;1.70;;
19940;SDS011;10132;50.864;5.176;2022-08-25T11:00:19;4.90;;;1.88;;
19940;SDS011;10132;50.864;5.176;2022-08-25T11:05:04;3.95;;;1.75;;
19940;SDS011;10132;50.864;5.176;2022-08-25T11:07:10;1.80;;;1.70;;
19940;SDS011;10132;50.864;5.176;2022-08-25T11:09:23;4.57;;;2.03;;
19940;SDS011;10132;50.864;5.176;2022-08-25T11:11:30;4.47;;;1.80;;
19940;SDS011;10132;50.864;5.176;2022-08-25T11:13:37;3.47;;;1.70;;
19940;SDS011;10132;50.864;5.176;2022-08-25T11:15:46;7.07;;;2.70;;
19940;SDS011;10132;50.864;5.176;2022-08-25T11:17:54;4.63;;;1.88;;
19940;SDS011;10132;50.864;5.176;2022-08-25T11:19:59;2.95;;;1.80;;
19940;SDS011;10132;50.864;5.176;2022-08-25T11:22:10;6.43;;;1.90;;
19940;SDS011;10132;50.864;5.176;2022-08-25T11:24:28;6.60;;;1.90;;
19940;SDS011;10132;50.864;5.176;2022-08-25T11:26:36;6.13;;;1.85;;
19940;SDS011;10132;50.864;5.176;2022-08-25T11:28:48;4.93;;;2.00;;
19940;SDS011;10132;50.864;5.176;2022-08-25T11:30:58;22.98;;;2.58;;
19940;SDS011;10132;50.864;5.176;2022-08-25T11:33:01;5.68;;;1.88;;
19940;SDS011;10132;50.864;5.176;2022-08-25T11:35:06;5.07;;;1.80;;
19940;SDS011;10132;50.864;5.176;2022-08-25T11:37:12;5.93;;;1.83;;
19940;SDS011;10132;50.864;5.176;2022-08-25T11:39:25;5.03;;;1.73;;
19940;SDS011;10132;50.864;5.176;2022-08-25T11:41:44;4.78;;;1.95;;
19940;SDS011;10132;50.864;5.176;2022-08-25T11:44:02;5.10;;;1.80;;
19940;SDS011;10132;50.864;5.176;2022-08-25T11:46:25;6.05;;;2.05;;
19940;SDS011;10132;50.864;5.176;2022-08-25T11:48:40;3.85;;;1.90;;
19940;SDS011;10132;50.864;5.176;2022-08-25T11:50:54;4.03;;;1.85;;
19940;SDS011;10132;50.864;5.176;2022-08-25T11:53:00;3.53;;;1.70;;
19940;SDS011;10132;50.864;5.176;2022-08-25T11:55:20;2.42;;;1.63;;
19940;SDS011;10132;50.864;5.176;2022-08-25T11:57:26;4.20;;;1.80;;
19940;SDS011;10132;50.864;5.176;2022-08-25T12:02:24;3.03;;;1.98;;
19940;SDS011;10132;50.864;5.176;2022-08-25T12:04:32;6.50;;;2.55;;
19940;SDS011;10132;50.864;5.176;2022-08-25T12:09:17;8.77;;;3.00;;
19940;SDS011;10132;50.864;5.176;2022-08-25T12:13:47;5.20;;;2.58;;
19940;SDS011;10132;50.864;5.176;2022-08-25T12:15:55;6.05;;;2.60;;
19940;SDS011;10132;50.864;5.176;2022-08-25T12:18:09;5.82;;;2.08;;
19940;SDS011;10132;50.864;5.176;2022-08-25T12:20:12;3.83;;;1.83;;
19940;SDS011;10132;50.864;5.176;2022-08-25T12:24:46;3.00;;;1.98;;
19940;SDS011;10132;50.864;5.176;2022-08-25T12:26:57;9.93;;;2.10;;
19940;SDS011;10132;50.864;5.176;2022-08-25T12:29:03;5.45;;;2.30;;
19940;SDS011;10132;50.864;5.176;2022-08-25T12:31:18;4.40;;;2.28;;
19940;SDS011;10132;50.864;5.176;2022-08-25T12:33:54;2.70;;;1.75;;
19940;SDS011;10132;50.864;5.176;2022-08-25T12:36:10;3.92;;;2.05;;
19940;SDS011;10132;50.864;5.176;2022-08-25T12:38:28;8.55;;;2.28;;
19940;SDS011;10132;50.864;5.176;2022-08-25T12:40:34;5.22;;;2.78;;
19940;SDS011;10132;50.864;5.176;2022-08-25T12:42:40;6.95;;;2.00;;
19940;SDS011;10132;50.864;5.176;2022-08-25T12:44:43;4.38;;;2.10;;
19940;SDS011;10132;50.864;5.176;2022-08-25T12:46:51;8.93;;;2.10;;